createdAt,value
2022-11-04T00:02:20.306Z,8.17
2022-11-04T00:05:05.469Z,8.27
2022-11-04T00:07:50.219Z,8.33
2022-11-04T00:10:34.993Z,8.27
2022-11-04T00:13:19.678Z,8.24
2022-11-04T00:16:04.379Z,8.13
2022-11-04T00:18:49.123Z,8.07
2022-11-04T00:21:33.817Z,7.96
2022-11-04T00:24:18.646Z,7.83
2022-11-04T00:27:03.477Z,7.77
2022-11-04T00:29:48.316Z,7.90
2022-11-04T00:32:32.979Z,8.04
2022-11-04T00:35:17.830Z,8.25
2022-11-04T00:38:02.623Z,8.35
2022-11-04T00:40:47.469Z,8.51
2022-11-04T00:43:32.246Z,8.62
2022-11-04T00:46:17.095Z,8.73
2022-11-04T00:49:01.828Z,8.54
2022-11-04T00:51:46.588Z,8.37
2022-11-04T00:54:31.399Z,8.38
2022-11-04T00:57:16.146Z,8.35
2022-11-04T01:00:00.971Z,8.31
2022-11-04T01:02:45.777Z,8.34
2022-11-04T01:05:30.431Z,8.37
2022-11-04T01:08:15.431Z,8.48
2022-11-04T01:10:59.985Z,8.48
2022-11-04T01:13:44.835Z,8.43
2022-11-04T01:16:29.728Z,8.40
2022-11-04T01:19:14.747Z,8.21
2022-11-04T01:21:59.491Z,8.03
2022-11-04T01:24:44.249Z,8.03
2022-11-04T01:27:28.871Z,7.92
2022-11-04T01:30:13.669Z,7.87
2022-11-04T01:32:58.335Z,7.79
2022-11-04T01:35:43.203Z,7.84
2022-11-04T01:38:28.032Z,7.92
2022-11-04T01:41:12.737Z,7.94
2022-11-04T01:43:57.445Z,7.92
2022-11-04T01:46:42.150Z,7.86
2022-11-04T01:49:26.922Z,7.92
2022-11-04T01:52:11.548Z,7.95
2022-11-04T01:54:56.407Z,7.98
2022-11-04T01:57:41.122Z,7.98
2022-11-04T02:00:25.991Z,7.94
2022-11-04T02:03:11.083Z,7.85
2022-11-04T02:05:55.845Z,7.86
2022-11-04T02:08:40.567Z,7.76
2022-11-04T02:11:25.309Z,7.69
2022-11-04T02:14:10.232Z,7.67
2022-11-04T02:16:54.996Z,7.71
2022-11-04T02:19:39.806Z,7.77
2022-11-04T02:22:24.436Z,7.74
2022-11-04T02:25:09.233Z,7.75
2022-11-04T02:27:53.982Z,7.69
2022-11-04T02:30:38.876Z,7.56
2022-11-04T02:33:23.518Z,7.41
2022-11-04T02:36:08.412Z,7.32
2022-11-04T02:38:53.144Z,7.32
2022-11-04T02:41:37.866Z,7.33
2022-11-04T02:44:22.526Z,7.29
2022-11-04T02:47:07.281Z,7.28
2022-11-04T02:49:52.121Z,7.21
2022-11-04T02:52:36.816Z,7.21
2022-11-04T02:55:21.599Z,7.13
2022-11-04T02:58:06.324Z,7.08
2022-11-04T03:00:51.142Z,6.90
2022-11-04T03:03:36.342Z,6.83
2022-11-04T03:06:21.211Z,6.85
2022-11-04T03:09:05.962Z,6.92
2022-11-04T03:11:50.713Z,6.95
2022-11-04T03:14:35.605Z,7.05
2022-11-04T03:17:20.372Z,7.04
2022-11-04T03:20:05.242Z,7.06
2022-11-04T03:22:49.916Z,7.09
2022-11-04T03:25:34.831Z,7.09
2022-11-04T03:28:19.548Z,7.14
2022-11-04T03:31:04.204Z,7.14
2022-11-04T03:33:48.854Z,7.14
2022-11-04T03:36:33.585Z,7.17
2022-11-04T03:39:18.309Z,7.15
2022-11-04T03:42:03.082Z,7.14
2022-11-04T03:44:47.830Z,7.16
2022-11-04T03:47:32.531Z,7.12
2022-11-04T03:50:17.285Z,7.19
2022-11-04T03:53:01.954Z,7.14
2022-11-04T03:55:46.709Z,7.18
2022-11-04T03:58:31.396Z,7.13
2022-11-04T04:01:16.336Z,7.02
2022-11-04T04:04:01.505Z,6.88
2022-11-04T04:06:46.259Z,6.73
2022-11-04T04:09:30.971Z,6.69
2022-11-04T04:12:15.685Z,6.65
2022-11-04T04:15:00.552Z,6.66
2022-11-04T04:17:45.184Z,6.59
2022-11-04T04:20:30.013Z,6.58
2022-11-04T04:23:14.678Z,6.54
2022-11-04T04:25:59.369Z,6.53
2022-11-04T04:28:44.024Z,6.61
2022-11-04T04:31:28.765Z,6.67
2022-11-04T04:34:13.435Z,6.81
2022-11-04T04:36:58.211Z,6.90
2022-11-04T04:39:42.908Z,6.94
2022-11-04T04:42:27.609Z,6.97
2022-11-04T04:45:12.519Z,6.96
2022-11-04T04:47:57.124Z,6.97
2022-11-04T04:50:41.973Z,6.89
2022-11-04T04:53:26.628Z,6.86
2022-11-04T04:56:11.400Z,6.89
2022-11-04T04:58:56.088Z,6.79
2022-11-04T05:01:41.087Z,6.84
2022-11-04T05:04:26.200Z,6.90
2022-11-04T05:07:10.919Z,6.89
2022-11-04T05:09:55.563Z,6.79
2022-11-04T05:12:40.428Z,6.74
2022-11-04T05:15:25.269Z,6.58
2022-11-04T05:18:10.295Z,6.52
2022-11-04T05:20:55.268Z,6.53
2022-11-04T05:23:40.061Z,6.68
2022-11-04T05:26:25.392Z,6.71
2022-11-04T05:29:10.101Z,6.57
2022-11-04T05:31:54.881Z,6.47
2022-11-04T05:34:39.505Z,6.60
2022-11-04T05:37:24.352Z,6.67
2022-11-04T05:40:09.076Z,6.70
2022-11-04T05:42:53.775Z,6.69
2022-11-04T05:45:38.615Z,6.69
2022-11-04T05:48:23.234Z,6.65
2022-11-04T05:51:07.997Z,6.77
2022-11-04T05:53:52.641Z,6.81
2022-11-04T05:56:37.623Z,6.88
2022-11-04T05:59:22.269Z,6.89
2022-11-04T06:02:07.130Z,6.84
2022-11-04T06:04:52.200Z,6.82
2022-11-04T06:07:37.051Z,6.79
2022-11-04T06:10:21.950Z,6.82
2022-11-04T06:13:06.580Z,6.88
2022-11-04T06:15:51.505Z,6.89
2022-11-04T06:18:36.145Z,6.91
2022-11-04T06:21:20.968Z,6.81
2022-11-04T06:24:05.588Z,6.86
2022-11-04T06:26:50.353Z,6.94
2022-11-04T06:29:35.085Z,6.91
2022-11-04T06:32:19.827Z,6.96
2022-11-04T06:35:04.519Z,6.99
2022-11-04T06:37:49.353Z,7.00
2022-11-04T06:40:34.095Z,6.98
2022-11-04T06:43:18.835Z,6.96
2022-11-04T06:46:03.844Z,6.98
2022-11-04T06:48:48.561Z,7.09
2022-11-04T06:51:33.325Z,7.17
2022-11-04T06:54:18.047Z,7.19
2022-11-04T06:57:02.823Z,7.16
2022-11-04T06:59:47.532Z,7.17
2022-11-04T07:02:32.344Z,7.23
2022-11-04T07:05:17.484Z,7.29
2022-11-04T07:08:02.263Z,7.41
2022-11-04T07:10:47.041Z,7.54
2022-11-04T07:13:31.712Z,7.52
2022-11-04T07:16:16.587Z,7.46
2022-11-04T07:19:01.315Z,7.36
2022-11-04T07:21:46.292Z,7.26
2022-11-04T07:24:31.025Z,7.30
2022-11-04T07:27:15.965Z,7.33
2022-11-04T07:30:00.614Z,7.38
2022-11-04T07:32:45.410Z,7.43
2022-11-04T07:35:30.311Z,7.47
2022-11-04T07:38:15.150Z,7.53
2022-11-04T07:41:00.169Z,7.46
2022-11-04T07:43:44.925Z,7.45
2022-11-04T07:46:29.692Z,7.50
2022-11-04T07:49:14.427Z,7.57
2022-11-04T07:51:59.191Z,7.71
2022-11-04T07:54:43.913Z,7.82
2022-11-04T07:57:28.861Z,7.96
2022-11-04T08:00:13.584Z,8.08
2022-11-04T08:02:58.474Z,8.32
2022-11-04T08:05:43.215Z,8.49
2022-11-04T08:08:28.044Z,8.70
2022-11-04T08:11:17.138Z,8.24
2022-11-04T08:14:02.491Z,7.87
2022-11-04T08:16:47.115Z,7.55
2022-11-04T08:19:31.889Z,7.38
2022-11-04T08:22:16.507Z,7.36
2022-11-04T08:25:01.450Z,7.34
2022-11-04T08:27:46.111Z,7.45
2022-11-04T08:30:31.004Z,7.57
2022-11-04T08:33:15.760Z,7.79
2022-11-04T08:36:00.614Z,8.00
2022-11-04T08:38:45.281Z,8.23
2022-11-04T08:41:30.117Z,8.42
2022-11-04T08:44:14.852Z,8.61
2022-11-04T08:46:59.716Z,8.82
2022-11-04T08:49:44.539Z,8.97
2022-11-04T08:52:29.406Z,9.18
2022-11-04T08:55:14.183Z,9.32
2022-11-04T08:57:58.961Z,9.44
2022-11-04T09:00:43.893Z,9.55
2022-11-04T09:03:28.662Z,9.71
2022-11-04T09:06:13.342Z,9.81
2022-11-04T09:08:58.167Z,9.86
2022-11-04T09:11:42.971Z,10.00
2022-11-04T09:14:27.680Z,9.91
2022-11-04T09:17:12.495Z,9.77
2022-11-04T09:19:57.351Z,9.84
2022-11-04T09:22:45.794Z,9.78
2022-11-04T09:25:31.027Z,9.52
2022-11-04T09:28:15.729Z,9.43
2022-11-04T09:31:00.444Z,9.42
2022-11-04T09:33:45.221Z,9.48
2022-11-04T09:36:29.964Z,9.55
2022-11-04T09:39:14.720Z,9.62
2022-11-04T09:41:59.418Z,9.69
2022-11-04T09:45:07.302Z,9.92
2022-11-04T09:47:49.230Z,10.13
2022-11-04T09:50:33.996Z,10.26
2022-11-04T09:53:18.919Z,10.30
2022-11-04T09:56:03.643Z,10.38
2022-11-04T09:58:48.530Z,10.61
2022-11-04T10:01:33.259Z,10.73
2022-11-04T10:04:18.409Z,10.78
2022-11-04T10:07:03.072Z,10.91
2022-11-04T10:09:47.719Z,10.94
2022-11-04T10:12:32.326Z,11.11
2022-11-04T10:15:18.006Z,11.35
2022-11-04T10:18:02.795Z,11.23
2022-11-04T10:20:47.511Z,11.25
2022-11-04T10:23:32.252Z,10.95
2022-11-04T10:26:16.957Z,10.43
2022-11-04T10:29:01.848Z,10.26
2022-11-04T10:31:46.550Z,10.07
2022-11-04T10:34:31.327Z,9.77
2022-11-04T10:37:16.196Z,9.54
2022-11-04T10:40:00.904Z,9.45
2022-11-04T10:42:45.842Z,9.29
2022-11-04T10:45:30.492Z,9.37
2022-11-04T10:48:15.251Z,9.46
2022-11-04T10:50:59.866Z,9.71
2022-11-04T10:53:44.788Z,10.20
2022-11-04T10:56:29.445Z,10.43
2022-11-04T10:59:19.905Z,10.40
2022-11-04T11:02:05.298Z,10.56
2022-11-04T11:04:49.939Z,10.78
2022-11-04T11:07:34.669Z,10.95
2022-11-04T11:10:19.405Z,11.16
2022-11-04T11:13:04.264Z,10.97
2022-11-04T11:15:48.960Z,11.03
2022-11-04T11:18:33.763Z,10.67
2022-11-04T11:21:18.476Z,10.07
2022-11-04T11:24:03.250Z,9.63
2022-11-04T11:26:48.094Z,9.35
2022-11-04T11:29:32.704Z,9.35
2022-11-04T11:32:17.501Z,9.52
2022-11-04T11:35:04.354Z,9.76
2022-11-04T11:37:51.423Z,10.04
2022-11-04T11:40:36.265Z,10.33
2022-11-04T11:43:21.165Z,10.37
2022-11-04T11:46:05.963Z,10.63
2022-11-04T11:48:50.670Z,10.78
2022-11-04T11:51:35.323Z,10.91
2022-11-04T11:54:20.177Z,10.83
2022-11-04T11:57:13.728Z,10.94
2022-11-04T12:03:03.880Z,10.57
2022-11-04T12:11:58.785Z,11.02
2022-11-04T12:14:48.546Z,11.14
2022-11-04T12:17:34.086Z,10.95
2022-11-04T12:20:18.715Z,10.69
2022-11-04T12:23:03.551Z,10.51
2022-11-04T12:25:48.346Z,10.35
2022-11-04T12:28:33.363Z,10.37
2022-11-04T12:31:18.068Z,10.42
2022-11-04T12:34:02.917Z,10.66
2022-11-04T12:36:47.564Z,10.92
2022-11-04T12:39:32.386Z,11.14
2022-11-04T12:42:21.910Z,11.37
2022-11-04T12:45:07.721Z,11.49
2022-11-04T12:47:52.586Z,11.58
2022-11-04T12:50:37.264Z,11.44
2022-11-04T12:53:21.906Z,11.37
2022-11-04T12:56:06.824Z,11.29
2022-11-04T12:58:51.562Z,11.14
2022-11-04T13:01:36.518Z,11.19
2022-11-04T13:04:21.607Z,11.11
2022-11-04T13:07:06.351Z,10.93
2022-11-04T13:09:51.129Z,10.70
2022-11-04T13:12:36.032Z,10.51
2022-11-04T13:15:20.795Z,10.52
2022-11-04T13:18:05.576Z,10.56
2022-11-04T13:20:50.329Z,10.57
2022-11-04T13:23:35.095Z,10.52
2022-11-04T13:26:19.869Z,10.45
2022-11-04T13:29:08.840Z,10.48
2022-11-04T13:31:53.894Z,10.41
2022-11-04T13:34:38.585Z,10.16
2022-11-04T13:37:23.242Z,10.06
2022-11-04T13:40:08.284Z,10.00
2022-11-04T13:42:52.875Z,9.74
2022-11-04T13:45:37.672Z,9.48
2022-11-04T13:48:22.308Z,9.30
2022-11-04T13:51:07.118Z,9.23
2022-11-04T13:53:51.861Z,9.24
2022-11-04T13:56:36.759Z,9.23
2022-11-04T13:59:21.609Z,9.12
2022-11-04T14:02:07.031Z,9.07
2022-11-04T14:04:52.232Z,9.06
2022-11-04T14:07:36.772Z,9.01
2022-11-04T14:10:21.565Z,8.96
2022-11-04T14:13:06.495Z,8.91
2022-11-04T14:15:51.568Z,8.73
2022-11-04T14:18:36.221Z,8.53
2022-11-04T14:21:21.147Z,8.34
2022-11-04T14:24:05.856Z,8.22
2022-11-04T14:26:50.693Z,8.16
2022-11-04T14:29:35.499Z,8.17
2022-11-04T14:32:20.185Z,8.33
2022-11-04T14:35:04.886Z,8.50
2022-11-04T14:37:53.262Z,8.70
2022-11-04T14:40:40.459Z,8.77
2022-11-04T14:43:25.228Z,8.84
2022-11-04T14:46:09.882Z,8.82
2022-11-04T14:48:54.771Z,8.78
2022-11-04T14:51:39.362Z,8.69
2022-11-04T14:54:24.180Z,8.58
2022-11-04T14:57:08.900Z,8.57
2022-11-04T14:59:53.664Z,8.53
2022-11-04T15:02:38.349Z,8.48
2022-11-04T15:05:23.100Z,8.43
2022-11-04T15:08:07.896Z,8.32
2022-11-04T15:10:52.608Z,8.24
2022-11-04T15:13:37.438Z,8.05
2022-11-04T15:16:22.232Z,7.87
2022-11-04T15:19:06.960Z,7.78
2022-11-04T15:21:51.728Z,7.83
2022-11-04T15:24:36.465Z,7.92
2022-11-04T15:27:21.129Z,8.09
2022-11-04T15:30:05.928Z,8.22
2022-11-04T15:32:50.673Z,8.34
2022-11-04T15:35:35.415Z,8.44
2022-11-04T15:38:20.191Z,8.41
2022-11-04T15:41:04.979Z,8.40
2022-11-04T15:43:49.864Z,8.34
2022-11-04T15:46:34.582Z,8.28
2022-11-04T15:49:19.427Z,8.31
2022-11-04T15:52:04.127Z,8.37
2022-11-04T15:54:48.789Z,8.35
2022-11-04T15:57:33.502Z,8.30
2022-11-04T16:00:18.265Z,8.27
2022-11-04T16:03:03.007Z,8.21
2022-11-04T16:05:47.741Z,8.10
2022-11-04T16:08:32.523Z,8.06
2022-11-04T16:11:17.526Z,8.01
2022-11-04T16:14:02.617Z,7.96
2022-11-04T16:16:47.469Z,7.85
2022-11-04T16:19:32.272Z,7.80
2022-11-04T16:22:17.006Z,7.80
2022-11-04T16:25:01.861Z,7.78
2022-11-04T16:27:46.477Z,7.79
2022-11-04T16:30:31.351Z,7.79
2022-11-04T16:33:16.024Z,7.76
2022-11-04T16:36:00.780Z,7.79
2022-11-04T16:38:45.571Z,7.82
2022-11-04T16:41:30.396Z,7.85
2022-11-04T16:44:15.274Z,7.82
2022-11-04T16:46:59.992Z,7.74
2022-11-04T16:49:44.735Z,7.73
2022-11-04T16:52:29.471Z,7.73
2022-11-04T16:55:14.225Z,7.72
2022-11-04T16:57:59.011Z,7.62
2022-11-04T17:00:43.812Z,7.55
2022-11-04T17:03:28.949Z,7.64
2022-11-04T17:06:13.713Z,7.65
2022-11-04T17:08:58.653Z,7.70
2022-11-04T17:11:43.382Z,7.74
2022-11-04T17:14:28.165Z,7.60
2022-11-04T17:17:12.860Z,7.53
2022-11-04T17:19:57.895Z,7.37
2022-11-04T17:22:42.649Z,7.20
2022-11-04T17:25:27.362Z,7.08
2022-11-04T17:28:12.088Z,6.89
2022-11-04T17:30:56.853Z,6.94
2022-11-04T17:33:41.670Z,6.92
2022-11-04T17:36:26.504Z,6.91
2022-11-04T17:39:11.255Z,6.87
2022-11-04T17:41:56.081Z,6.84
2022-11-04T17:44:40.964Z,6.82
2022-11-04T17:47:25.663Z,6.66
2022-11-04T17:50:10.451Z,6.55
2022-11-04T17:52:55.163Z,6.48
2022-11-04T17:55:39.914Z,6.31
2022-11-04T17:58:24.657Z,6.13
2022-11-04T18:01:09.547Z,6.02
2022-11-04T18:03:54.340Z,5.91
2022-11-04T18:06:39.774Z,5.86
2022-11-04T18:09:24.832Z,5.87
2022-11-04T18:12:09.677Z,5.88
2022-11-04T18:14:54.460Z,5.88
2022-11-04T18:17:39.114Z,5.90
2022-11-04T18:20:24.000Z,5.89
2022-11-04T18:23:09.206Z,5.92
2022-11-04T18:25:54.099Z,5.89
2022-11-04T18:28:38.856Z,5.94
2022-11-04T18:31:23.598Z,5.97
2022-11-04T18:34:08.529Z,5.97
2022-11-04T18:36:53.115Z,5.90
2022-11-04T18:39:38.008Z,5.86
2022-11-04T18:42:22.879Z,5.90
2022-11-04T18:45:07.674Z,5.98
2022-11-04T18:47:52.524Z,5.95
2022-11-04T18:50:37.321Z,5.96
2022-11-04T18:53:26.844Z,5.96
2022-11-04T18:56:12.242Z,5.89
2022-11-04T18:58:57.139Z,5.95
2022-11-04T19:01:41.882Z,5.93
2022-11-04T19:04:26.891Z,6.04
2022-11-04T19:07:11.663Z,6.17
2022-11-04T19:09:56.380Z,6.26
2022-11-04T19:12:41.080Z,6.27
2022-11-04T19:15:25.843Z,6.24
2022-11-04T19:18:11.051Z,6.25
2022-11-04T19:20:56.447Z,6.18
2022-11-04T19:23:41.213Z,6.04
2022-11-04T19:26:25.952Z,6.00
2022-11-04T19:29:10.702Z,5.89
2022-11-04T19:31:55.335Z,5.86
2022-11-04T19:34:40.061Z,5.70
2022-11-04T19:37:24.880Z,5.67
2022-11-04T19:40:09.637Z,5.72
2022-11-04T19:42:54.456Z,5.79
2022-11-04T19:45:39.058Z,5.81
2022-11-04T19:48:23.886Z,5.83
2022-11-04T19:51:08.719Z,5.82
2022-11-04T19:53:53.612Z,5.79
2022-11-04T19:56:38.777Z,5.82
2022-11-04T19:59:23.466Z,5.84
2022-11-04T20:02:08.451Z,5.73
2022-11-04T20:04:53.601Z,5.58
2022-11-04T20:07:38.465Z,5.47
2022-11-04T20:10:23.125Z,5.49
2022-11-04T20:13:08.087Z,5.59
2022-11-04T20:15:52.858Z,5.66
2022-11-04T20:18:37.647Z,5.53
2022-11-04T20:21:22.392Z,5.32
2022-11-04T20:24:07.378Z,5.30
2022-11-04T20:26:52.210Z,5.33
2022-11-04T20:29:36.996Z,5.23
2022-11-04T20:32:21.841Z,5.15
2022-11-04T20:35:06.599Z,5.18
2022-11-04T20:37:51.500Z,5.15
2022-11-04T20:40:36.245Z,5.08
2022-11-04T20:43:21.009Z,5.00
2022-11-04T20:46:05.768Z,4.94
2022-11-04T20:48:50.504Z,4.94
2022-11-04T20:51:35.150Z,4.89
2022-11-04T20:54:19.956Z,4.95
2022-11-04T20:57:04.792Z,5.11
2022-11-04T20:59:49.828Z,5.07
2022-11-04T21:02:34.683Z,5.04
2022-11-04T21:05:19.883Z,5.04
2022-11-04T21:08:04.632Z,4.91
2022-11-04T21:10:49.303Z,4.84
2022-11-04T21:13:34.215Z,4.72
2022-11-04T21:16:19.350Z,4.70
2022-11-04T21:19:04.211Z,4.63
2022-11-04T21:21:48.818Z,4.52
2022-11-04T21:24:38.836Z,4.48
2022-11-04T21:27:24.114Z,4.40
2022-11-04T21:30:08.796Z,4.29
2022-11-04T21:32:53.497Z,4.32
2022-11-04T21:35:38.465Z,4.23
2022-11-04T21:38:23.168Z,4.15
2022-11-04T21:41:08.032Z,4.17
2022-11-04T21:43:52.610Z,4.18
2022-11-04T21:46:37.332Z,4.21
2022-11-04T21:49:22.013Z,4.10
2022-11-04T21:52:06.923Z,4.13
2022-11-04T21:54:51.681Z,4.05
2022-11-04T21:57:36.530Z,3.93
2022-11-04T22:00:21.323Z,3.91
2022-11-04T22:03:06.244Z,3.85
2022-11-04T22:05:51.402Z,3.78
2022-11-04T22:08:36.095Z,3.73
2022-11-04T22:11:21.010Z,3.83
2022-11-04T22:14:05.807Z,3.83
2022-11-04T22:16:50.601Z,4.00
2022-11-04T22:19:35.348Z,4.13
2022-11-04T22:22:20.112Z,4.20
2022-11-04T22:25:04.799Z,4.35
2022-11-04T22:27:49.499Z,4.47
2022-11-04T22:30:34.233Z,4.50
2022-11-04T22:33:18.727Z,4.41
2022-11-04T22:36:03.634Z,4.39
2022-11-04T22:38:48.339Z,4.39
2022-11-04T22:41:33.275Z,4.31
2022-11-04T22:44:18.086Z,4.20
2022-11-04T22:47:02.814Z,4.14
2022-11-04T22:49:47.572Z,4.17
2022-11-04T22:52:32.393Z,4.05
2022-11-04T22:55:17.066Z,3.92
2022-11-04T22:58:01.980Z,3.88
2022-11-04T23:00:47.066Z,3.92
2022-11-04T23:03:32.208Z,4.01
2022-11-04T23:06:17.395Z,4.06
2022-11-04T23:09:02.229Z,4.15
2022-11-04T23:11:47.033Z,4.25
2022-11-04T23:14:31.733Z,4.39
2022-11-04T23:17:16.511Z,4.46
2022-11-04T23:20:01.293Z,4.38
2022-11-04T23:22:46.214Z,4.34
2022-11-04T23:25:31.020Z,4.27
2022-11-04T23:28:15.721Z,4.30
2022-11-04T23:31:00.567Z,4.39
2022-11-04T23:33:45.274Z,4.43
2022-11-04T23:36:30.001Z,4.43
2022-11-04T23:39:14.811Z,4.45
2022-11-04T23:41:59.564Z,4.45
2022-11-04T23:44:44.350Z,4.48
2022-11-04T23:47:29.239Z,4.47
2022-11-04T23:50:13.876Z,4.52
2022-11-04T23:52:58.689Z,4.53
2022-11-04T23:55:43.505Z,4.49
2022-11-04T23:58:28.431Z,4.43
